Time;durP1;ratioP1;P1;durP2;ratioP2;P2;SDS_P1;SDS_P2;PMS_P1;PMS_P2;Temp;Humidity;BMP_temperature;BMP_pressure;BME280_temperature;BME280_humidity;BME280_pressure;Samples;Min_cycle;Max_cycle;Signal;HPM_P1;HPM_P2
2023/05/19 00:00:52;;;;;;;2.95;1.50;;;12.90;59.10;;;;;;4993101;28;20748;-79
2023/05/19 00:03:20;;;;;;;2.93;1.77;;;12.90;59.20;;;;;;4995340;28;20198;-78
2023/05/19 00:05:47;;;;;;;5.03;2.10;;;12.90;59.40;;;;;;4994061;28;20942;-79
2023/05/19 00:08:15;;;;;;;3.80;1.38;;;12.80;59.60;;;;;;4994682;28;20233;-79
2023/05/19 00:10:42;;;;;;;6.15;1.70;;;12.80;59.90;;;;;;4977497;28;20246;-78
2023/05/19 00:13:08;;;;;;;3.53;1.58;;;12.70;60.00;;;;;;4994839;28;20615;-78
2023/05/19 00:15:34;;;;;;;4.60;1.57;;;12.70;60.30;;;;;;4998951;28;20186;-78
2023/05/19 00:18:00;;;;;;;6.15;1.85;;;12.70;60.70;;;;;;5014331;28;20612;-79
2023/05/19 00:20:26;;;;;;;3.40;1.52;;;12.70;61.10;;;;;;5013171;28;20198;-78
2023/05/19 00:22:52;;;;;;;2.83;1.37;;;12.70;61.40;;;;;;5008215;28;20182;-79
2023/05/19 00:25:18;;;;;;;5.00;2.00;;;12.60;61.60;;;;;;5011816;28;20539;-78
2023/05/19 00:27:43;;;;;;;4.67;1.70;;;12.60;61.80;;;;;;5013008;28;20220;-78
2023/05/19 00:30:09;;;;;;;3.03;1.30;;;12.60;62.20;;;;;;5014334;28;20236;-79
2023/05/19 00:32:35;;;;;;;8.48;2.28;;;12.60;62.60;;;;;;5012724;28;20205;-79
2023/05/19 00:35:01;;;;;;;2.60;1.55;;;12.50;63.00;;;;;;5018906;28;20174;-79
2023/05/19 00:37:27;;;;;;;3.10;1.47;;;12.50;63.50;;;;;;5013179;28;20528;-79
2023/05/19 00:39:53;;;;;;;2.90;1.70;;;12.50;64.00;;;;;;5013679;28;20186;-79
2023/05/19 00:42:20;;;;;;;4.07;2.10;;;12.50;64.20;;;;;;5014012;28;20194;-79
2023/05/19 00:44:45;;;;;;;4.40;1.73;;;12.40;64.50;;;;;;5013884;28;20185;-80
2023/05/19 00:47:17;;;;;;;3.73;1.80;;;12.40;65.10;;;;;;5012744;28;20182;-80
2023/05/19 00:49:54;;;;;;;3.92;1.90;;;12.40;66.10;;;;;;5012376;28;20217;-80
2023/05/19 00:52:41;;;;;;;4.20;1.75;;;12.30;66.20;;;;;;5026998;28;20562;-79
2023/05/19 00:55:16;;;;;;;3.65;2.03;;;12.30;67.40;;;;;;4976476;28;20178;-79
2023/05/19 00:57:59;;;;;;;;;;;;;;;;;;;;;
2023/05/19 01:00:33;;;;;;;5.03;2.33;;;12.20;68.00;;;;;;4992651;28;20229;-79
2023/05/19 01:03:00;;;;;;;5.05;2.50;;;12.20;68.60;;;;;;4991949;28;20182;-74
2023/05/19 01:05:26;;;;;;;5.57;2.65;;;12.20;68.70;;;;;;4991662;28;20182;-74
2023/05/19 01:07:55;;;;;;;4.50;2.70;;;12.20;69.60;;;;;;5009307;28;20245;-74
2023/05/19 01:10:21;;;;;;;5.88;2.95;;;12.10;70.20;;;;;;4976427;28;20625;-75
2023/05/19 01:12:47;;;;;;;5.05;2.58;;;12.10;70.90;;;;;;4975144;28;20542;-75
2023/05/19 01:15:14;;;;;;;5.25;3.08;;;12.10;71.50;;;;;;4995758;28;20659;-75
2023/05/19 01:17:43;;;;;;;3.40;2.25;;;12.10;71.90;;;;;;5007387;28;20166;-75
2023/05/19 01:20:20;;;;;;;4.15;2.08;;;12.10;72.50;;;;;;4995380;28;20202;-75
2023/05/19 01:23:04;;;;;;;4.38;2.65;;;12.00;73.00;;;;;;5027684;28;20196;-75
2023/05/19 01:26:10;;;;;;;6.00;4.00;;;12.00;74.30;;;;;;5012469;28;20186;-74
2023/05/19 01:28:54;;;;;;;3.38;2.42;;;12.00;75.70;;;;;;5028406;28;20173;-74
2023/05/19 01:31:22;;;;;;;8.38;2.75;;;12.00;74.50;;;;;;5011341;28;20210;-79
2023/05/19 01:33:50;;;;;;;2.90;2.20;;;11.90;75.30;;;;;;5011606;28;20193;-80
2023/05/19 01:36:39;;;;;;;6.97;3.00;;;11.90;76.00;;;;;;4995739;28;20622;-80
2023/05/19 01:39:06;;;;;;;7.18;3.20;;;11.90;76.70;;;;;;5011684;28;20174;-79
2023/05/19 01:41:33;;;;;;;4.75;2.95;;;11.80;77.20;;;;;;5011391;28;20209;-79
2023/05/19 01:43:59;;;;;;;3.38;2.53;;;11.80;78.30;;;;;;4995336;28;20167;-80
2023/05/19 01:46:25;;;;;;;5.45;2.50;;;11.80;79.10;;;;;;4995890;28;20681;-79
2023/05/19 01:48:52;;;;;;;5.60;2.53;;;11.80;79.80;;;;;;5016245;28;20186;-79
2023/05/19 01:51:18;;;;;;;4.50;2.85;;;11.70;80.30;;;;;;5010993;28;20700;-80
2023/05/19 01:53:44;;;;;;;7.67;3.50;;;11.70;80.90;;;;;;5011796;28;20276;-80
2023/05/19 01:56:10;;;;;;;4.80;3.33;;;11.70;81.60;;;;;;5011397;28;20166;-80
2023/05/19 01:58:50;;;;;;;5.57;3.17;;;11.60;82.10;;;;;;5030309;28;20190;-79
2023/05/19 02:01:25;;;;;;;7.32;3.53;;;11.60;84.00;;;;;;5017625;28;20204;-79
2023/05/19 02:04:17;;;;;;;5.45;2.65;;;11.60;84.10;;;;;;5018449;28;20517;-79
2023/05/19 02:06:53;;;;;;;4.82;3.10;;;11.50;85.60;;;;;;5017921;28;20228;-79
2023/05/19 02:09:25;;;;;;;7.43;2.42;;;11.50;85.00;;;;;;4995173;28;20240;-79
2023/05/19 02:12:14;;;;;;;5.70;2.50;;;11.40;85.10;;;;;;5010427;28;20292;-79
2023/05/19 02:14:55;;;;;;;6.82;3.58;;;11.50;86.40;;;;;;5007051;28;20185;-79
2023/05/19 02:17:24;;;;;;;4.05;2.00;;;11.40;88.20;;;;;;4994476;28;20174;-79
2023/05/19 02:19:50;;;;;;;4.70;2.35;;;11.40;87.30;;;;;;5011081;28;20232;-79
2023/05/19 02:22:18;;;;;;;4.15;2.33;;;11.40;87.80;;;;;;5010116;28;20683;-79
2023/05/19 02:24:50;;;;;;;3.50;2.45;;;11.40;88.30;;;;;;4993383;28;20194;-79
2023/05/19 02:27:17;;;;;;;5.18;2.20;;;11.40;89.20;;;;;;4991255;28;20178;-79
2023/05/19 02:29:43;;;;;;;5.75;3.08;;;11.40;89.70;;;;;;4991224;28;20203;-79
2023/05/19 02:32:10;;;;;;;2.78;1.98;;;11.30;89.90;;;;;;4991643;28;20213;-79
2023/05/19 02:34:36;;;;;;;6.85;3.90;;;11.30;90.20;;;;;;4974795;28;20294;-79
2023/05/19 02:37:03;;;;;;;3.38;1.90;;;11.30;90.40;;;;;;4991248;28;20182;-80
2023/05/19 02:39:33;;;;;;;6.40;3.50;;;11.30;90.60;;;;;;4974368;28;20198;-80
2023/05/19 02:42:00;;;;;;;3.83;2.90;;;11.30;90.90;;;;;;4974740;28;20646;-80
2023/05/19 02:44:26;;;;;;;5.05;2.70;;;11.20;91.10;;;;;;4974563;28;20436;-81
2023/05/19 02:46:52;;;;;;;4.10;2.93;;;11.20;91.30;;;;;;4990961;28;20178;-80
2023/05/19 02:49:18;;;;;;;3.33;2.47;;;11.20;91.60;;;;;;4974400;28;20205;-80
2023/05/19 02:51:45;;;;;;;3.05;2.05;;;11.20;91.80;;;;;;4974648;28;20309;-80
2023/05/19 02:54:10;;;;;;;3.80;2.60;;;11.10;92.10;;;;;;4974270;28;20266;-80
2023/05/19 02:56:36;;;;;;;5.30;2.73;;;11.10;92.30;;;;;;4974675;28;20179;-80
2023/05/19 02:59:02;;;;;;;6.73;2.50;;;11.10;92.60;;;;;;4974368;28;20701;-80
2023/05/19 03:01:27;;;;;;;6.70;4.43;;;11.10;92.80;;;;;;4995260;28;20246;-80
2023/05/19 03:03:53;;;;;;;3.27;2.70;;;11.10;93.10;;;;;;4992371;28;20175;-80
2023/05/19 03:06:22;;;;;;;4.70;2.60;;;11.10;93.20;;;;;;4974280;28;20179;-80
2023/05/19 03:08:48;;;;;;;5.13;3.10;;;11.00;93.40;;;;;;4974594;28;20183;-79
2023/05/19 03:11:14;;;;;;;4.72;2.92;;;11.00;93.70;;;;;;4973703;28;20726;-80
2023/05/19 03:13:40;;;;;;;3.70;2.33;;;11.00;93.80;;;;;;4974525;28;20178;-79
2023/05/19 03:16:06;;;;;;;2.70;2.23;;;11.00;94.00;;;;;;4973855;28;20583;-80
2023/05/19 03:18:33;;;;;;;2.60;2.22;;;10.90;94.20;;;;;;4991868;28;20566;-79
2023/05/19 03:20:59;;;;;;;6.13;2.60;;;10.90;94.20;;;;;;4973336;28;20214;-79
2023/05/19 03:23:25;;;;;;;4.87;2.57;;;10.90;94.50;;;;;;4975482;28;20179;-79
2023/05/19 03:25:53;;;;;;;5.03;2.13;;;10.80;94.60;;;;;;5009293;28;20731;-79
2023/05/19 03:28:19;;;;;;;3.58;2.50;;;10.80;94.90;;;;;;5011075;28;20682;-79
2023/05/19 03:30:45;;;;;;;4.18;2.70;;;10.80;95.10;;;;;;5019737;28;20578;-79
2023/05/19 03:33:15;;;;;;;4.15;2.20;;;10.80;95.20;;;;;;4973562;28;20182;-79
2023/05/19 03:35:43;;;;;;;4.15;2.47;;;10.80;95.50;;;;;;4985392;28;20263;-79
2023/05/19 03:38:09;;;;;;;2.95;2.58;;;10.80;95.70;;;;;;4958284;28;20172;-79
2023/05/19 03:40:35;;;;;;;4.53;2.45;;;10.80;96.00;;;;;;4972123;28;20203;-78
2023/05/19 03:43:06;;;;;;;3.95;2.22;;;10.70;96.10;;;;;;4970853;28;20230;-79
2023/05/19 03:45:38;;;;;;;3.08;2.78;;;10.70;96.20;;;;;;4954935;28;20289;-78
2023/05/19 03:48:22;;;;;;;8.05;3.70;;;10.70;96.40;;;;;;4954657;28;20635;-80
2023/05/19 03:51:08;;;;;;;4.20;2.45;;;10.70;96.60;;;;;;4971728;28;20211;-79
2023/05/19 03:53:33;;;;;;;6.77;2.37;;;10.70;96.70;;;;;;4954556;28;20172;-79
2023/05/19 03:55:59;;;;;;;5.47;3.10;;;10.70;96.90;;;;;;4970995;28;20575;-79
2023/05/19 03:58:25;;;;;;;7.18;3.45;;;10.70;97.10;;;;;;4970849;28;20186;-79
2023/05/19 04:00:53;;;;;;;5.22;2.45;;;10.70;97.50;;;;;;4970632;28;20207;-79
2023/05/19 04:03:19;;;;;;;3.78;2.72;;;10.70;97.60;;;;;;4970827;28;20274;-79
2023/05/19 04:05:45;;;;;;;3.70;2.72;;;10.70;97.70;;;;;;4971800;28;20179;-75
2023/05/19 04:08:11;;;;;;;4.90;2.67;;;10.70;97.90;;;;;;4972164;28;20226;-75
2023/05/19 04:10:36;;;;;;;8.37;3.77;;;10.70;98.00;;;;;;4954286;28;20666;-75
2023/05/19 04:13:02;;;;;;;4.10;2.60;;;10.70;98.30;;;;;;4970407;28;20572;-75
2023/05/19 04:15:28;;;;;;;6.47;3.03;;;10.70;98.60;;;;;;4974764;28;20217;-75
2023/05/19 04:17:54;;;;;;;9.00;2.75;;;10.70;98.70;;;;;;4983111;28;20183;-75
2023/05/19 04:20:20;;;;;;;4.67;3.10;;;10.80;98.80;;;;;;4970037;28;20207;-75
2023/05/19 04:22:46;;;;;;;3.63;2.70;;;10.80;99.00;;;;;;4973171;28;20176;-75
2023/05/19 04:25:12;;;;;;;4.30;2.90;;;10.80;99.20;;;;;;5005768;28;20178;-75
2023/05/19 04:27:38;;;;;;;6.03;3.78;;;10.80;99.30;;;;;;5009019;28;20174;-75
2023/05/19 04:30:05;;;;;;;9.18;2.83;;;10.90;99.70;;;;;;5025950;28;20723;-75
2023/05/19 04:32:31;;;;;;;4.28;2.65;;;10.90;99.80;;;;;;5008770;28;20217;-75
2023/05/19 04:34:58;;;;;;;5.35;2.85;;;11.00;99.90;;;;;;5009387;28;20170;-77
2023/05/19 04:37:26;;;;;;;6.78;4.47;;;11.10;99.90;;;;;;5010585;28;20238;-76
2023/05/19 04:39:53;;;;;;;4.05;2.95;;;11.20;99.90;;;;;;4976005;28;20750;-76
2023/05/19 04:42:19;;;;;;;3.45;2.78;;;11.30;99.90;;;;;;4992095;28;20175;-76
2023/05/19 04:44:48;;;;;;;7.82;3.15;;;11.40;99.90;;;;;;4976944;28;20523;-75
2023/05/19 04:47:14;;;;;;;6.35;3.75;;;11.50;99.90;;;;;;4993165;28;20176;-76
2023/05/19 04:49:40;;;;;;;6.67;3.33;;;11.50;99.90;;;;;;4993863;28;20523;-76
2023/05/19 04:52:09;;;;;;;5.20;3.33;;;11.70;99.90;;;;;;4992235;28;20744;-76
2023/05/19 04:54:37;;;;;;;4.60;2.90;;;11.90;99.90;;;;;;4992454;28;20934;-75
2023/05/19 04:57:04;;;;;;;5.13;3.05;;;12.20;99.90;;;;;;4992543;28;20189;-75
2023/05/19 04:59:32;;;;;;;3.50;2.15;;;12.40;99.90;;;;;;4973077;28;20198;-75
2023/05/19 05:01:58;;;;;;;3.80;2.58;;;12.50;99.90;;;;;;4984345;28;20175;-75
2023/05/19 05:04:27;;;;;;;4.53;2.38;;;12.60;99.90;;;;;;4976148;28;20294;-75
2023/05/19 05:06:53;;;;;;;3.90;2.20;;;12.70;99.90;;;;;;4992675;28;20274;-76
2023/05/19 05:09:19;;;;;;;4.70;2.38;;;12.80;99.90;;;;;;4977724;28;20206;-77
2023/05/19 05:11:46;;;;;;;7.20;2.47;;;12.80;99.90;;;;;;5006417;28;20226;-77
2023/05/19 05:14:12;;;;;;;4.80;2.33;;;12.90;99.90;;;;;;5008762;28;20570;-77
2023/05/19 05:16:38;;;;;;;4.20;2.70;;;13.10;99.90;;;;;;4976204;28;20167;-79
2023/05/19 05:19:30;;;;;;;3.58;2.15;;;13.30;99.90;;;;;;4992636;28;20301;-76
2023/05/19 05:21:56;;;;;;;4.53;2.20;;;13.60;99.90;;;;;;4991533;28;20175;-76
2023/05/19 05:24:22;;;;;;;6.75;1.90;;;14.00;99.90;;;;;;4975115;28;20224;-77
2023/05/19 05:26:53;;;;;;;5.70;2.23;;;14.70;99.90;;;;;;4989139;28;20238;-77
2023/05/19 05:29:19;;;;;;;6.50;2.37;;;15.40;99.90;;;;;;4957073;28;21144;-77
2023/05/19 05:31:45;;;;;;;4.70;1.80;;;16.10;99.90;;;;;;4988173;28;20298;-76
2023/05/19 05:34:11;;;;;;;4.17;1.83;;;16.70;99.90;;;;;;4983407;28;20992;-76
2023/05/19 05:36:37;;;;;;;4.93;1.57;;;17.20;99.90;;;;;;5011561;28;20281;-76
2023/05/19 05:39:04;;;;;;;3.50;1.90;;;17.70;99.90;;;;;;5011791;28;20581;-76
2023/05/19 05:41:34;;;;;;;2.83;1.40;;;18.00;99.10;;;;;;4994677;28;21235;-76
2023/05/19 05:44:04;;;;;;;4.63;1.77;;;18.30;98.20;;;;;;5011509;28;20684;-77
2023/05/19 05:46:31;;;;;;;3.57;1.60;;;18.70;98.50;;;;;;5010590;28;20699;-77
2023/05/19 05:48:57;;;;;;;3.37;1.90;;;19.10;98.20;;;;;;5008938;28;21243;-77
2023/05/19 05:51:23;;;;;;;4.33;2.27;;;19.90;98.40;;;;;;4993226;28;20649;-77
2023/05/19 05:53:52;;;;;;;2.83;1.30;;;20.60;98.40;;;;;;5026091;28;20613;-77
2023/05/19 05:56:19;;;;;;;2.97;1.47;;;21.50;98.20;;;;;;5009452;28;20609;-75
2023/05/19 05:58:49;;;;;;;3.07;1.40;;;22.50;97.80;;;;;;5026542;28;20995;-77
2023/05/19 06:01:16;;;;;;;4.47;1.40;;;23.40;97.10;;;;;;5010145;28;20620;-77
2023/05/19 06:03:43;;;;;;;4.80;1.70;;;24.20;95.70;;;;;;5010922;28;20601;-75
2023/05/19 06:06:12;;;;;;;19.10;2.93;;;25.10;94.40;;;;;;5011265;28;20616;-75
2023/05/19 06:08:39;;;;;;;6.63;1.10;;;25.70;90.80;;;;;;5000368;28;20650;-76
2023/05/19 06:11:08;;;;;;;6.53;1.47;;;26.40;90.00;;;;;;4991034;28;21310;-76
2023/05/19 06:13:37;;;;;;;3.30;1.63;;;27.00;87.70;;;;;;4991912;28;20302;-76
2023/05/19 06:16:06;;;;;;;3.37;1.17;;;27.50;75.20;;;;;;4991110;28;21229;-76
2023/05/19 06:18:39;;;;;;;2.07;0.97;;;28.10;77.90;;;;;;4976289;28;20665;-76
2023/05/19 06:21:05;;;;;;;4.37;1.00;;;28.60;75.20;;;;;;4990497;28;20680;-76
2023/05/19 06:23:31;;;;;;;4.60;1.10;;;29.20;73.30;;;;;;4977055;28;21289;-76
2023/05/19 06:25:57;;;;;;;4.57;1.30;;;29.60;69.20;;;;;;5010632;28;20593;-76
2023/05/19 06:28:22;;;;;;;2.50;1.10;;;30.10;66.30;;;;;;5011034;28;20639;-76
2023/05/19 06:30:50;;;;;;;3.20;1.00;;;30.40;64.40;;;;;;4993684;28;20202;-76
2023/05/19 06:33:30;;;;;;;3.80;0.80;;;30.80;61.20;;;;;;5027427;28;20632;-76
2023/05/19 06:35:56;;;;;;;3.63;0.83;;;31.10;59.00;;;;;;5010552;28;20911;-76
2023/05/19 06:38:22;;;;;;;1.60;0.73;;;31.30;57.00;;;;;;4994509;28;20618;-76
2023/05/19 06:40:49;;;;;;;5.43;1.00;;;31.50;54.20;;;;;;5010031;28;20202;-77
2023/05/19 06:43:14;;;;;;;3.73;1.03;;;31.60;54.10;;;;;;5011629;28;20589;-76
2023/05/19 06:45:57;;;;;;;3.60;0.77;;;31.60;50.70;;;;;;4996519;28;20182;-76
2023/05/19 06:48:25;;;;;;;2.93;0.83;;;31.20;48.30;;;;;;5011500;28;20600;-76
2023/05/19 06:50:51;;;;;;;3.00;0.87;;;31.00;49.80;;;;;;4993629;28;20669;-76
2023/05/19 06:53:19;;;;;;;4.97;1.00;;;31.20;50.20;;;;;;4993594;28;20647;-76
2023/05/19 06:55:45;;;;;;;3.23;0.90;;;31.20;48.50;;;;;;5010489;28;20639;-76
2023/05/19 06:58:13;;;;;;;4.30;1.20;;;31.10;47.40;;;;;;5026296;28;20620;-76
2023/05/19 07:00:38;;;;;;;5.87;1.77;;;30.80;44.80;;;;;;5010330;28;20652;-75
2023/05/19 07:03:06;;;;;;;2.93;1.17;;;30.60;43.70;;;;;;5009893;28;20192;-76
2023/05/19 07:05:32;;;;;;;3.83;0.90;;;30.40;45.80;;;;;;4995784;28;20606;-76
2023/05/19 07:08:00;;;;;;;3.50;1.23;;;30.60;46.60;;;;;;4990393;28;20550;-76
2023/05/19 07:10:28;;;;;;;4.17;0.90;;;30.90;46.00;;;;;;4990191;28;20624;-76
2023/05/19 07:12:54;;;;;;;2.07;0.80;;;30.90;45.20;;;;;;4973863;28;20594;-76
2023/05/19 07:15:23;;;;;;;3.27;1.10;;;31.10;45.00;;;;;;4990873;28;20637;-76
2023/05/19 07:17:48;;;;;;;2.00;0.90;;;31.10;45.00;;;;;;4990552;28;20594;-76
2023/05/19 07:20:14;;;;;;;3.73;0.80;;;31.30;45.30;;;;;;4991208;28;20685;-76
2023/05/19 07:22:40;;;;;;;2.33;0.80;;;31.80;45.40;;;;;;4989889;28;20273;-76
2023/05/19 07:25:07;;;;;;;3.60;0.90;;;32.20;44.60;;;;;;5021531;28;20190;-76
2023/05/19 07:27:33;;;;;;;2.43;0.77;;;32.40;42.90;;;;;;5026448;28;20625;-77
2023/05/19 07:29:59;;;;;;;3.03;0.90;;;32.80;43.80;;;;;;5010886;28;20634;-77
2023/05/19 07:32:24;;;;;;;3.70;1.10;;;33.00;42.00;;;;;;5010693;28;20208;-77
2023/05/19 07:34:50;;;;;;;2.27;0.83;;;32.80;42.70;;;;;;5009316;28;20173;-77
2023/05/19 07:37:16;;;;;;;2.80;0.90;;;33.00;41.80;;;;;;5009944;28;20180;-77
2023/05/19 07:39:42;;;;;;;2.07;0.90;;;33.10;41.40;;;;;;5009389;28;20600;-77
2023/05/19 07:42:08;;;;;;;2.27;0.80;;;33.20;41.50;;;;;;5021896;23;20308;-77
2023/05/19 07:44:33;;;;;;;4.27;0.90;;;33.30;41.70;;;;;;5003004;28;20256;-77
2023/05/19 07:47:00;;;;;;;2.20;0.83;;;33.70;41.40;;;;;;5026410;28;21241;-77
2023/05/19 07:49:26;;;;;;;5.63;1.73;;;34.00;41.10;;;;;;5030834;28;20160;-77
2023/05/19 07:51:53;;;;;;;2.60;0.93;;;34.00;39.30;;;;;;5029852;28;20700;-77
2023/05/19 07:54:19;;;;;;;2.20;0.90;;;34.10;39.90;;;;;;5013065;28;20184;-75
2023/05/19 07:56:45;;;;;;;2.40;0.90;;;34.40;40.00;;;;;;5030346;28;20580;-76
2023/05/19 07:59:12;;;;;;;6.10;1.40;;;34.70;39.90;;;;;;5012938;28;20583;-75
2023/05/19 08:01:37;;;;;;;2.97;0.90;;;35.10;40.10;;;;;;5023666;28;20604;-75
2023/05/19 08:04:03;;;;;;;2.83;0.80;;;35.40;39.10;;;;;;5010865;28;20596;-75
2023/05/19 08:06:30;;;;;;;2.10;1.00;;;35.60;39.20;;;;;;5030457;28;20205;-75
2023/05/19 08:08:56;;;;;;;3.03;0.90;;;35.90;38.60;;;;;;5030434;28;20587;-75
2023/05/19 08:11:22;;;;;;;3.30;0.80;;;36.20;37.10;;;;;;5030066;28;20627;-75
2023/05/19 08:13:48;;;;;;;3.00;0.93;;;36.20;37.10;;;;;;5033818;28;20600;-75
2023/05/19 08:16:14;;;;;;;2.10;0.80;;;36.30;37.20;;;;;;5016379;28;20176;-75
2023/05/19 08:18:40;;;;;;;2.50;0.90;;;36.50;36.90;;;;;;5033985;28;20576;-75
2023/05/19 08:21:06;;;;;;;2.00;0.90;;;36.50;36.30;;;;;;5016239;28;20625;-75
2023/05/19 08:23:32;;;;;;;1.70;0.80;;;36.50;35.50;;;;;;4990025;28;20194;-75
2023/05/19 08:25:58;;;;;;;3.03;1.00;;;36.50;35.30;;;;;;5014530;28;20189;-75
2023/05/19 08:28:24;;;;;;;3.20;0.90;;;36.20;34.40;;;;;;4996179;28;20585;-75
2023/05/19 08:30:53;;;;;;;3.87;0.73;;;36.10;34.40;;;;;;5014133;28;20635;-75
2023/05/19 08:33:20;;;;;;;3.40;0.90;;;36.10;34.50;;;;;;5013910;28;20604;-75
2023/05/19 08:35:46;;;;;;;1.80;0.80;;;36.20;35.00;;;;;;5014075;28;20604;-75
2023/05/19 08:38:12;;;;;;;2.70;1.07;;;36.50;35.20;;;;;;5014204;28;20658;-75
2023/05/19 08:40:41;;;;;;;3.37;0.90;;;36.60;34.20;;;;;;5013317;28;20640;-75
2023/05/19 08:43:07;;;;;;;4.70;0.97;;;36.40;34.00;;;;;;4996242;28;20296;-74
2023/05/19 08:45:37;;;;;;;4.13;1.23;;;36.30;34.00;;;;;;5013791;28;20585;-75
2023/05/19 08:48:03;;;;;;;4.00;1.00;;;36.50;33.90;;;;;;4996520;28;20593;-75
2023/05/19 08:50:33;;;;;;;3.10;1.00;;;36.60;33.40;;;;;;4996074;28;20923;-75
2023/05/19 08:53:21;;;;;;;2.13;0.80;;;36.70;33.70;;;;;;4996157;28;20207;-75
2023/05/19 08:56:00;;;;;;;3.33;0.93;;;37.10;34.00;;;;;;4996015;28;20568;-74
2023/05/19 08:58:27;;;;;;;3.00;0.90;;;37.50;34.00;;;;;;5004129;28;20623;-74
2023/05/19 09:00:55;;;;;;;3.37;0.80;;;37.70;33.80;;;;;;5028019;28;20591;-75
2023/05/19 09:03:21;;;;;;;1.70;0.70;;;37.90;34.00;;;;;;5015360;28;20646;-75
2023/05/19 09:05:47;;;;;;;2.80;0.90;;;38.20;33.00;;;;;;5015113;28;20635;-75
2023/05/19 09:08:13;;;;;;;2.07;0.70;;;38.30;32.20;;;;;;5033403;28;20247;-75
2023/05/19 09:10:38;;;;;;;2.57;0.90;;;38.40;32.40;;;;;;5033409;28;20888;-75
2023/05/19 09:13:05;;;;;;;1.97;0.80;;;38.40;31.40;;;;;;5014740;28;20197;-74
2023/05/19 09:15:32;;;;;;;2.80;1.00;;;38.00;30.90;;;;;;5015516;28;20201;-75
2023/05/19 09:18:12;;;;;;;2.33;0.80;;;38.00;31.30;;;;;;5032423;28;20580;-75
2023/05/19 09:20:43;;;;;;;1.93;0.70;;;38.10;31.00;;;;;;5033205;28;20714;-74
2023/05/19 09:23:14;;;;;;;3.47;0.93;;;38.30;31.00;;;;;;5007347;28;20617;-75
2023/05/19 09:25:48;;;;;;;2.77;0.80;;;38.30;30.90;;;;;;4992078;28;20585;-75
2023/05/19 09:28:14;;;;;;;3.90;0.97;;;38.50;30.40;;;;;;4975723;28;20622;-75
2023/05/19 09:30:40;;;;;;;2.23;0.80;;;38.50;30.10;;;;;;4976149;28;20600;-76
2023/05/19 09:33:08;;;;;;;2.33;0.93;;;38.20;28.50;;;;;;4993008;28;21161;-75
2023/05/19 09:35:35;;;;;;;2.90;1.10;;;37.80;28.50;;;;;;4976356;28;20693;-75
2023/05/19 09:38:01;;;;;;;4.87;0.97;;;37.70;29.20;;;;;;4975707;28;20578;-74
2023/05/19 09:40:27;;;;;;;3.67;0.83;;;37.80;29.30;;;;;;4993507;28;20652;-75
2023/05/19 09:42:53;;;;;;;2.77;0.70;;;37.90;29.20;;;;;;4975826;28;20305;-75
2023/05/19 09:45:19;;;;;;;3.70;1.00;;;37.90;28.60;;;;;;4991956;28;20958;-75
2023/05/19 09:47:45;;;;;;;2.63;0.90;;;37.90;29.10;;;;;;4976216;28;20214;-75
2023/05/19 09:50:12;;;;;;;2.83;0.80;;;38.00;28.70;;;;;;4975613;28;20621;-75
2023/05/19 09:52:41;;;;;;;2.80;0.80;;;38.10;29.10;;;;;;4978969;28;20721;-75
2023/05/19 09:55:11;;;;;;;3.37;0.97;;;38.00;28.70;;;;;;5024948;28;20584;-75
2023/05/19 09:57:39;;;;;;;3.40;0.90;;;38.00;28.60;;;;;;5012977;28;20569;-75
2023/05/19 10:00:16;;;;;;;2.80;1.10;;;37.60;28.30;;;;;;4994769;28;20593;-75
2023/05/19 10:02:43;;;;;;;2.77;0.87;;;37.00;28.10;;;;;;4998465;28;20662;-77
2023/05/19 10:05:18;;;;;;;3.43;0.90;;;36.30;28.40;;;;;;4989741;28;20641;-75
2023/05/19 10:07:51;;;;;;;4.40;1.47;;;35.90;28.30;;;;;;5007507;28;20690;-76
2023/05/19 10:10:20;;;;;;;2.07;0.73;;;35.70;28.90;;;;;;5005722;28;20616;-75
2023/05/19 10:12:47;;;;;;;2.97;0.90;;;35.80;29.30;;;;;;5002376;28;20667;-75
2023/05/19 10:15:15;;;;;;;2.10;0.90;;;36.00;29.10;;;;;;5029715;28;20588;-75
2023/05/19 10:17:42;;;;;;;3.87;0.87;;;35.90;29.10;;;;;;5014200;28;20576;-75
2023/05/19 10:20:13;;;;;;;2.33;0.80;;;36.00;28.80;;;;;;5014470;28;20590;-75
2023/05/19 10:22:43;;;;;;;2.37;0.70;;;36.10;28.90;;;;;;5010780;28;20624;-75
2023/05/19 10:25:11;;;;;;;2.27;0.80;;;36.30;28.70;;;;;;5010753;28;20597;-75
2023/05/19 10:27:56;;;;;;;3.30;0.80;;;36.40;28.50;;;;;;4994311;28;20600;-76
2023/05/19 10:30:34;;;;;;;3.40;0.80;;;36.60;28.00;;;;;;5014224;28;20580;-75
2023/05/19 10:33:02;;;;;;;3.33;0.87;;;36.90;28.40;;;;;;4994587;28;20691;-76
2023/05/19 10:35:31;;;;;;;3.33;0.90;;;37.00;27.80;;;;;;4994221;28;21145;-76
2023/05/19 10:38:19;;;;;;;4.67;1.03;;;37.00;27.80;;;;;;4994021;28;20636;-76
2023/05/19 10:40:58;;;;;;;3.07;1.50;;;36.60;27.20;;;;;;4994143;28;20581;-77
2023/05/19 10:43:45;;;;;;;3.20;1.17;;;36.20;27.10;;;;;;4994102;28;20699;-76
2023/05/19 10:46:11;;;;;;;2.63;0.90;;;35.80;27.40;;;;;;4994170;28;20632;-77
2023/05/19 10:48:36;;;;;;;1.97;1.00;;;35.50;27.30;;;;;;4994064;28;21031;-77
2023/05/19 10:51:03;;;;;;;2.43;1.10;;;35.00;27.30;;;;;;5019119;28;20218;-76
2023/05/19 10:53:33;;;;;;;4.60;1.20;;;34.40;27.30;;;;;;4990549;28;20195;-76
2023/05/19 10:56:06;;;;;;;4.03;1.57;;;34.10;27.50;;;;;;4974582;28;20713;-76
2023/05/19 10:58:43;;;;;;;4.87;1.43;;;33.50;27.20;;;;;;4991764;28;20609;-76
2023/05/19 11:01:17;;;;;;;2.20;0.90;;;32.80;27.20;;;;;;4974357;28;20685;-76
2023/05/19 11:03:58;;;;;;;1.80;0.63;;;32.30;27.30;;;;;;4974502;28;20605;-76
2023/05/19 11:06:31;;;;;;;2.67;0.80;;;32.00;27.70;;;;;;4974749;28;20583;-76
2023/05/19 11:09:10;;;;;;;2.57;0.97;;;31.60;27.80;;;;;;4995781;28;20636;-75
2023/05/19 11:12:02;;;;;;;2.03;0.90;;;31.20;28.00;;;;;;4974025;28;20644;-76
2023/05/19 11:14:30;;;;;;;1.87;0.90;;;30.90;28.30;;;;;;4991877;28;20609;-76
2023/05/19 11:16:58;;;;;;;2.43;0.90;;;30.60;28.40;;;;;;4974480;28;20586;-76
2023/05/19 11:19:33;;;;;;;2.77;0.70;;;30.40;28.80;;;;;;4992322;28;20578;-76
2023/05/19 11:22:09;;;;;;;3.20;0.93;;;30.40;29.60;;;;;;4990949;28;20617;-76
2023/05/19 11:24:37;;;;;;;1.70;0.80;;;30.60;29.40;;;;;;4991665;28;20621;-76
2023/05/19 11:27:37;;;;;;;2.30;0.80;;;30.80;30.00;;;;;;5011062;28;20585;-76
2023/05/19 11:30:06;;;;;;;3.70;0.97;;;31.00;29.90;;;;;;5011372;28;20573;-76
2023/05/19 11:32:34;;;;;;;3.60;1.10;;;31.00;29.50;;;;;;5010214;28;20637;-77
2023/05/19 11:35:01;;;;;;;3.20;0.90;;;30.90;29.10;;;;;;5011167;28;20620;-76
2023/05/19 11:37:30;;;;;;;2.80;1.10;;;30.90;29.10;;;;;;4993423;28;20592;-75
2023/05/19 11:39:57;;;;;;;2.17;1.10;;;30.80;29.30;;;;;;5010121;28;20575;-76
2023/05/19 11:42:22;;;;;;;3.57;1.00;;;30.80;29.30;;;;;;4992711;28;20633;-75
2023/05/19 11:44:48;;;;;;;2.70;0.90;;;30.90;29.40;;;;;;5016457;28;20606;-75
2023/05/19 11:47:16;;;;;;;2.30;0.77;;;31.00;29.40;;;;;;5003688;28;20198;-76
2023/05/19 11:49:47;;;;;;;2.83;0.97;;;31.20;30.00;;;;;;5034837;28;20515;-76
2023/05/19 11:52:14;;;;;;;2.10;0.90;;;31.30;29.40;;;;;;5016051;28;20746;-76
2023/05/19 11:54:42;;;;;;;2.03;0.80;;;31.30;29.20;;;;;;5034976;28;20580;-77
2023/05/19 11:57:09;;;;;;;2.63;1.20;;;31.10;28.90;;;;;;5034742;28;20596;-76
2023/05/19 11:59:38;;;;;;;3.23;1.67;;;30.90;29.00;;;;;;5016661;28;20592;-77
2023/05/19 12:02:20;;;;;;;2.77;0.80;;;30.80;29.70;;;;;;5016585;28;21007;-76
2023/05/19 12:04:49;;;;;;;2.67;0.80;;;30.60;29.40;;;;;;5016384;28;20587;-76
2023/05/19 12:07:18;;;;;;;3.90;0.90;;;30.60;29.50;;;;;;5016735;28;20580;-76
2023/05/19 12:09:48;;;;;;;2.43;0.70;;;30.60;29.90;;;;;;5016363;28;20623;-76
2023/05/19 12:12:19;;;;;;;3.60;1.30;;;30.50;29.90;;;;;;5016204;28;20657;-75
2023/05/19 12:14:46;;;;;;;2.00;0.70;;;30.40;29.00;;;;;;5016248;28;20629;-75
2023/05/19 12:17:13;;;;;;;1.80;0.70;;;30.30;29.30;;;;;;5034310;28;20603;-75
2023/05/19 12:19:41;;;;;;;3.20;0.80;;;30.10;29.40;;;;;;5016009;28;20628;-76
2023/05/19 12:22:08;;;;;;;1.60;0.70;;;30.00;29.30;;;;;;5020375;28;20608;-75
2023/05/19 12:24:38;;;;;;;3.20;0.90;;;29.90;29.20;;;;;;4998119;28;20675;-76
2023/05/19 12:27:22;;;;;;;2.80;1.00;;;29.70;29.20;;;;;;4996829;28;20581;-76
2023/05/19 12:29:51;;;;;;;6.93;1.07;;;29.60;29.30;;;;;;5013951;28;20589;-76
2023/05/19 12:32:17;;;;;;;2.83;0.80;;;29.50;29.30;;;;;;5013765;28;20647;-76
2023/05/19 12:34:43;;;;;;;2.70;0.97;;;29.40;29.50;;;;;;5014170;28;20995;-77
2023/05/19 12:37:10;;;;;;;2.83;0.80;;;29.30;29.40;;;;;;4996471;28;20719;-76
2023/05/19 12:39:36;;;;;;;3.83;0.77;;;29.20;29.70;;;;;;5014185;28;20177;-76
2023/05/19 12:42:09;;;;;;;2.73;1.00;;;29.10;29.70;;;;;;5013397;28;20639;-76
2023/05/19 12:44:45;;;;;;;4.27;0.97;;;28.90;29.70;;;;;;4981031;28;20605;-76
2023/05/19 12:47:12;;;;;;;3.23;0.70;;;28.70;29.60;;;;;;5013376;28;21158;-76
2023/05/19 12:50:09;;;;;;;2.63;0.90;;;28.50;29.50;;;;;;4996394;28;20579;-76
2023/05/19 12:52:47;;;;;;;3.67;1.30;;;28.20;29.60;;;;;;4979050;28;20754;-76
2023/05/19 12:55:15;;;;;;;2.10;0.80;;;27.90;29.50;;;;;;4996373;28;20631;-78
2023/05/19 12:57:47;;;;;;;3.43;1.30;;;27.60;29.40;;;;;;4979586;28;20681;-78